sensor_id;sensor_type;location;lat;lon;timestamp;pressure;altitude;pressure_sealevel;temperature;humidity
41234;BME280;26968;42.686;23.352;2022-12-07T00:01:10;95222.28;;;6.64;74.68
41234;BME280;26968;42.686;23.352;2022-12-07T00:03:38;95215.88;;;6.55;74.52
41234;BME280;26968;42.686;23.352;2022-12-07T00:06:06;95226.50;;;6.65;74.74
41234;BME280;26968;42.686;23.352;2022-12-07T00:08:32;95074.81;;;5.72;74.41
41234;BME280;26968;42.686;23.352;2022-12-07T00:11:11;95133.16;;;6.07;74.17
41234;BME280;26968;42.686;23.352;2022-12-07T00:13:38;95110.31;;;5.91;74.61
41234;BME280;26968;42.686;23.352;2022-12-07T00:16:07;95134.81;;;6.13;74.55
41234;BME280;26968;42.686;23.352;2022-12-07T00:18:32;95193.63;;;6.46;74.43
41234;BME280;26968;42.686;23.352;2022-12-07T00:21:04;95093.41;;;5.87;74.50
41234;BME280;26968;42.686;23.352;2022-12-07T00:23:30;95215.69;;;6.62;74.43
41234;BME280;26968;42.686;23.352;2022-12-07T00:25:56;95129.72;;;6.07;74.47
41234;BME280;26968;42.686;23.352;2022-12-07T00:28:21;95099.72;;;5.86;74.69
41234;BME280;26968;42.686;23.352;2022-12-07T00:30:48;95196.47;;;6.39;74.45
41234;BME280;26968;42.686;23.352;2022-12-07T00:33:15;95145.03;;;6.10;74.54
41234;BME280;26968;42.686;23.352;2022-12-07T00:35:40;95217.19;;;6.57;74.81
41234;BME280;26968;42.686;23.352;2022-12-07T00:38:06;95219.84;;;6.57;74.69
41234;BME280;26968;42.686;23.352;2022-12-07T00:40:33;95220.63;;;6.58;74.72
41234;BME280;26968;42.686;23.352;2022-12-07T00:42:58;95115.34;;;5.93;74.24
41234;BME280;26968;42.686;23.352;2022-12-07T00:45:25;95077.44;;;5.72;74.28
41234;BME280;26968;42.686;23.352;2022-12-07T00:47:50;95124.56;;;5.95;74.53
41234;BME280;26968;42.686;23.352;2022-12-07T00:50:15;95129.16;;;6.05;74.43
41234;BME280;26968;42.686;23.352;2022-12-07T00:52:41;95126.34;;;6.11;74.73
41234;BME280;26968;42.686;23.352;2022-12-07T00:55:08;95156.00;;;6.24;74.77
41234;BME280;26968;42.686;23.352;2022-12-07T00:57:33;95141.47;;;6.21;74.12
41234;BME280;26968;42.686;23.352;2022-12-07T00:59:59;95051.63;;;5.69;74.32
41234;BME280;26968;42.686;23.352;2022-12-07T01:02:25;95147.13;;;6.35;74.52
41234;BME280;26968;42.686;23.352;2022-12-07T01:04:50;95201.50;;;6.68;74.41
41234;BME280;26968;42.686;23.352;2022-12-07T01:07:16;95015.34;;;5.49;74.28
41234;BME280;26968;42.686;23.352;2022-12-07T01:09:41;95156.88;;;6.34;74.38
41234;BME280;26968;42.686;23.352;2022-12-07T01:12:07;95200.44;;;6.64;74.44
41234;BME280;26968;42.686;23.352;2022-12-07T01:14:33;95094.84;;;5.95;74.42
41234;BME280;26968;42.686;23.352;2022-12-07T01:17:00;95011.13;;;5.48;74.17
41234;BME280;26968;42.686;23.352;2022-12-07T01:19:29;95200.72;;;6.67;74.63
41234;BME280;26968;42.686;23.352;2022-12-07T01:21:55;95184.78;;;6.57;74.28
41234;BME280;26968;42.686;23.352;2022-12-07T01:24:20;95107.19;;;6.16;74.69
41234;BME280;26968;42.686;23.352;2022-12-07T01:26:49;95106.69;;;6.19;74.16
41234;BME280;26968;42.686;23.352;2022-12-07T01:29:14;95185.38;;;6.64;74.15
41234;BME280;26968;42.686;23.352;2022-12-07T01:31:40;95027.88;;;5.64;74.68
41234;BME280;26968;42.686;23.352;2022-12-07T01:34:05;95161.03;;;6.52;74.66
41234;BME280;26968;42.686;23.352;2022-12-07T01:36:34;95053.38;;;5.85;74.51
41234;BME280;26968;42.686;23.352;2022-12-07T01:39:03;95065.34;;;5.93;74.71
41234;BME280;26968;42.686;23.352;2022-12-07T01:41:31;95090.78;;;6.09;74.63
41234;BME280;26968;42.686;23.352;2022-12-07T01:44:20;95143.50;;;6.41;74.59
41234;BME280;26968;42.686;23.352;2022-12-07T01:47:04;95188.53;;;6.61;74.76
41234;BME280;26968;42.686;23.352;2022-12-07T01:49:56;95122.25;;;6.20;74.35
41234;BME280;26968;42.686;23.352;2022-12-07T01:52:30;95077.16;;;5.90;74.82
41234;BME280;26968;42.686;23.352;2022-12-07T01:55:02;95067.59;;;5.84;74.53
41234;BME280;26968;42.686;23.352;2022-12-07T01:57:31;95125.97;;;6.25;74.88
41234;BME280;26968;42.686;23.352;2022-12-07T01:59:59;95170.56;;;6.58;75.03
41234;BME280;26968;42.686;23.352;2022-12-07T02:02:32;95163.97;;;6.55;74.58
41234;BME280;26968;42.686;23.352;2022-12-07T02:05:00;95166.28;;;6.52;74.69
41234;BME280;26968;42.686;23.352;2022-12-07T02:07:27;95036.88;;;5.68;75.19
41234;BME280;26968;42.686;23.352;2022-12-07T02:09:54;95108.78;;;6.17;75.00
41234;BME280;26968;42.686;23.352;2022-12-07T02:12:20;95074.84;;;5.94;74.85
41234;BME280;26968;42.686;23.352;2022-12-07T02:14:47;95129.94;;;6.27;75.10
41234;BME280;26968;42.686;23.352;2022-12-07T02:19:54;95173.66;;;6.50;74.91
41234;BME280;26968;42.686;23.352;2022-12-07T02:27:51;95147.09;;;6.30;75.13
41234;BME280;26968;42.686;23.352;2022-12-07T02:30:22;95158.13;;;6.48;75.08
41234;BME280;26968;42.686;23.352;2022-12-07T02:35:48;95151.53;;;6.51;75.07
41234;BME280;26968;42.686;23.352;2022-12-07T02:38:22;95144.66;;;6.50;75.01
41234;BME280;26968;42.686;23.352;2022-12-07T02:40:57;94979.69;;;5.36;75.03
41234;BME280;26968;42.686;23.352;2022-12-07T02:43:38;95059.44;;;5.86;75.23
41234;BME280;26968;42.686;23.352;2022-12-07T02:46:09;95164.41;;;6.47;75.39
41234;BME280;26968;42.686;23.352;2022-12-07T02:48:37;95083.06;;;5.80;75.80
41234;BME280;26968;42.686;23.352;2022-12-07T02:51:03;95010.34;;;5.48;75.16
41234;BME280;26968;42.686;23.352;2022-12-07T02:53:34;95146.66;;;6.38;75.51
41234;BME280;26968;42.686;23.352;2022-12-07T02:56:50;95077.94;;;5.91;74.98
41234;BME280;26968;42.686;23.352;2022-12-07T03:04:48;95019.06;;;5.53;75.03
41234;BME280;26968;42.686;23.352;2022-12-07T03:07:36;95141.59;;;6.31;75.29
41234;BME280;26968;42.686;23.352;2022-12-07T03:13:02;94992.47;;;5.28;75.18
41234;BME280;26968;42.686;23.352;2022-12-07T03:15:32;95044.47;;;5.64;75.44
41234;BME280;26968;42.686;23.352;2022-12-07T03:18:00;95100.59;;;5.92;75.38
41234;BME280;26968;42.686;23.352;2022-12-07T03:20:29;95099.41;;;6.04;75.27
41234;BME280;26968;42.686;23.352;2022-12-07T03:22:56;95084.97;;;5.85;75.26
41234;BME280;26968;42.686;23.352;2022-12-07T03:25:22;95091.50;;;5.82;75.55
41234;BME280;26968;42.686;23.352;2022-12-07T03:27:57;95125.06;;;6.14;75.27
41234;BME280;26968;42.686;23.352;2022-12-07T03:30:31;95144.78;;;6.11;75.86
41234;BME280;26968;42.686;23.352;2022-12-07T03:33:08;95075.59;;;5.72;75.34
41234;BME280;26968;42.686;23.352;2022-12-07T03:35:41;95098.03;;;5.80;75.28
41234;BME280;26968;42.686;23.352;2022-12-07T03:38:27;95136.81;;;6.06;75.89
41234;BME280;26968;42.686;23.352;2022-12-07T03:41:00;95004.25;;;5.03;75.42
41234;BME280;26968;42.686;23.352;2022-12-07T03:43:29;95047.25;;;5.36;75.78
41234;BME280;26968;42.686;23.352;2022-12-07T03:53:30;95073.47;;;5.48;76.22
41234;BME280;26968;42.686;23.352;2022-12-07T03:55:58;94981.56;;;4.97;75.52
41234;BME280;26968;42.686;23.352;2022-12-07T03:58:24;95118.13;;;5.86;75.56
41234;BME280;26968;42.686;23.352;2022-12-07T04:00:50;95083.13;;;5.64;76.28
41234;BME280;26968;42.686;23.352;2022-12-07T04:03:17;95012.16;;;5.25;75.59
41234;BME280;26968;42.686;23.352;2022-12-07T04:05:42;95114.47;;;5.87;75.98
41234;BME280;26968;42.686;23.352;2022-12-07T04:08:08;95129.91;;;6.00;76.03
41234;BME280;26968;42.686;23.352;2022-12-07T04:10:34;95025.75;;;5.39;75.39
41234;BME280;26968;42.686;23.352;2022-12-07T04:13:00;94977.72;;;5.05;75.96
41234;BME280;26968;42.686;23.352;2022-12-07T04:15:25;95135.38;;;5.94;75.66
41234;BME280;26968;42.686;23.352;2022-12-07T04:17:51;95133.03;;;5.97;76.00
41234;BME280;26968;42.686;23.352;2022-12-07T04:20:16;95075.97;;;5.59;75.88
41234;BME280;26968;42.686;23.352;2022-12-07T04:22:42;95079.81;;;5.73;75.71
41234;BME280;26968;42.686;23.352;2022-12-07T04:25:07;95074.97;;;5.65;75.81
41234;BME280;26968;42.686;23.352;2022-12-07T04:27:33;95125.56;;;5.89;75.67
41234;BME280;26968;42.686;23.352;2022-12-07T04:29:59;95047.44;;;5.29;76.10
41234;BME280;26968;42.686;23.352;2022-12-07T04:32:24;95055.88;;;5.31;75.91
41234;BME280;26968;42.686;23.352;2022-12-07T04:34:50;95022.22;;;5.12;76.14
41234;BME280;26968;42.686;23.352;2022-12-07T04:37:16;95132.91;;;5.87;75.98
41234;BME280;26968;42.686;23.352;2022-12-07T04:39:42;94951.59;;;4.77;76.04
41234;BME280;26968;42.686;23.352;2022-12-07T04:42:10;95073.50;;;5.53;76.33
41234;BME280;26968;42.686;23.352;2022-12-07T04:44:36;94984.69;;;4.94;76.36
41234;BME280;26968;42.686;23.352;2022-12-07T04:47:01;95036.53;;;5.21;76.25
41234;BME280;26968;42.686;23.352;2022-12-07T04:49:27;95115.56;;;5.69;76.59
41234;BME280;26968;42.686;23.352;2022-12-07T04:51:52;94948.75;;;4.61;76.19
41234;BME280;26968;42.686;23.352;2022-12-07T04:54:18;95109.59;;;5.57;76.20
41234;BME280;26968;42.686;23.352;2022-12-07T04:56:44;95035.44;;;5.17;75.88
41234;BME280;26968;42.686;23.352;2022-12-07T04:59:11;94823.97;;;3.82;76.27
41234;BME280;26968;42.686;23.352;2022-12-07T05:01:36;95080.91;;;5.34;76.15
41234;BME280;26968;42.686;23.352;2022-12-07T05:04:02;95133.78;;;5.76;75.98
41234;BME280;26968;42.686;23.352;2022-12-07T05:06:28;94990.53;;;4.80;76.34
41234;BME280;26968;42.686;23.352;2022-12-07T05:08:53;95017.81;;;4.95;76.20
41234;BME280;26968;42.686;23.352;2022-12-07T05:11:18;95030.06;;;4.90;76.92
41234;BME280;26968;42.686;23.352;2022-12-07T05:17:24;94519.22;;;1.64;76.62
41234;BME280;26968;42.686;23.352;2022-12-07T05:19:50;95091.78;;;5.42;76.62
41234;BME280;26968;42.686;23.352;2022-12-07T05:22:15;94873.91;;;4.04;76.72
41234;BME280;26968;42.686;23.352;2022-12-07T05:24:41;95034.28;;;4.91;76.62
41234;BME280;26968;42.686;23.352;2022-12-07T05:27:06;95127.47;;;5.55;77.05
41234;BME280;26968;42.686;23.352;2022-12-07T05:29:32;95114.38;;;5.38;76.43
41234;BME280;26968;42.686;23.352;2022-12-07T05:31:57;95091.53;;;5.22;76.58
41234;BME280;26968;42.686;23.352;2022-12-07T05:34:23;95133.78;;;5.54;77.25
41234;BME280;26968;42.686;23.352;2022-12-07T05:36:48;95131.31;;;5.48;77.12
41234;BME280;26968;42.686;23.352;2022-12-07T05:39:14;95069.00;;;5.10;76.84
41234;BME280;26968;42.686;23.352;2022-12-07T05:41:39;95036.22;;;4.95;76.76
41234;BME280;26968;42.686;23.352;2022-12-07T05:44:23;95095.09;;;5.33;76.83
41234;BME280;26968;42.686;23.352;2022-12-07T05:46:49;94991.97;;;4.71;77.22
41234;BME280;26968;42.686;23.352;2022-12-07T05:49:14;95081.56;;;5.24;77.07
41234;BME280;26968;42.686;23.352;2022-12-07T05:51:40;95090.22;;;5.41;76.71
41234;BME280;26968;42.686;23.352;2022-12-07T05:54:05;95042.81;;;4.98;77.37
41234;BME280;26968;42.686;23.352;2022-12-07T05:56:31;95071.84;;;5.25;77.43
41234;BME280;26968;42.686;23.352;2022-12-07T05:58:56;95029.75;;;5.03;77.11
41234;BME280;26968;42.686;23.352;2022-12-07T06:01:40;95090.22;;;5.41;77.03
41234;BME280;26968;42.686;23.352;2022-12-07T06:04:06;94977.19;;;4.64;77.28
41234;BME280;26968;42.686;23.352;2022-12-07T06:06:31;94970.34;;;4.63;77.59
41234;BME280;26968;42.686;23.352;2022-12-07T06:08:57;95004.28;;;4.87;77.32
41234;BME280;26968;42.686;23.352;2022-12-07T06:11:22;95042.94;;;5.08;78.00
41234;BME280;26968;42.686;23.352;2022-12-07T06:14:06;95033.50;;;4.90;77.36
41234;BME280;26968;42.686;23.352;2022-12-07T06:16:34;94972.97;;;4.63;77.44
41234;BME280;26968;42.686;23.352;2022-12-07T06:18:59;95131.03;;;5.66;77.68
41234;BME280;26968;42.686;23.352;2022-12-07T06:21:24;95009.13;;;4.95;77.59
41234;BME280;26968;42.686;23.352;2022-12-07T06:23:51;95129.59;;;5.58;77.49
41234;BME280;26968;42.686;23.352;2022-12-07T06:26:17;95023.53;;;4.92;77.72
41234;BME280;26968;42.686;23.352;2022-12-07T06:28:43;95093.38;;;5.43;77.37
41234;BME280;26968;42.686;23.352;2022-12-07T06:31:08;95083.16;;;5.25;77.63
41234;BME280;26968;42.686;23.352;2022-12-07T06:33:34;95014.53;;;4.88;77.84
41234;BME280;26968;42.686;23.352;2022-12-07T06:35:59;95015.84;;;4.86;78.12
41234;BME280;26968;42.686;23.352;2022-12-07T06:38:24;94985.19;;;4.75;77.71
41234;BME280;26968;42.686;23.352;2022-12-07T06:40:50;94986.53;;;4.77;77.72
41234;BME280;26968;42.686;23.352;2022-12-07T06:43:16;94965.94;;;4.69;77.99
41234;BME280;26968;42.686;23.352;2022-12-07T06:45:41;95077.72;;;5.32;77.85
41234;BME280;26968;42.686;23.352;2022-12-07T06:48:07;95041.34;;;5.07;78.30
41234;BME280;26968;42.686;23.352;2022-12-07T06:50:33;95152.84;;;5.83;78.18
41234;BME280;26968;42.686;23.352;2022-12-07T06:52:58;94965.94;;;4.69;77.61
41234;BME280;26968;42.686;23.352;2022-12-07T06:55:23;95058.75;;;5.30;77.38
41234;BME280;26968;42.686;23.352;2022-12-07T06:57:49;94827.53;;;3.93;77.42
41234;BME280;26968;42.686;23.352;2022-12-07T07:00:15;95158.31;;;5.98;77.90
41234;BME280;26968;42.686;23.352;2022-12-07T07:02:40;95068.00;;;5.32;77.64
41234;BME280;26968;42.686;23.352;2022-12-07T07:05:06;95112.59;;;5.66;77.57
41234;BME280;26968;42.686;23.352;2022-12-07T07:07:31;95134.00;;;5.91;77.39
41234;BME280;26968;42.686;23.352;2022-12-07T07:09:57;94988.13;;;4.95;77.51
41234;BME280;26968;42.686;23.352;2022-12-07T07:12:22;94799.25;;;3.95;77.00
41234;BME280;26968;42.686;23.352;2022-12-07T07:14:48;94850.38;;;4.31;76.69
41234;BME280;26968;42.686;23.352;2022-12-07T07:17:13;95037.34;;;5.43;76.97
41234;BME280;26968;42.686;23.352;2022-12-07T07:19:38;95137.38;;;6.08;77.16
41234;BME280;26968;42.686;23.352;2022-12-07T07:22:04;95117.34;;;5.86;77.21
41234;BME280;26968;42.686;23.352;2022-12-07T07:24:30;95141.53;;;6.04;77.40
41234;BME280;26968;42.686;23.352;2022-12-07T07:26:55;95097.44;;;5.73;77.49
41234;BME280;26968;42.686;23.352;2022-12-07T07:29:20;95136.16;;;5.94;77.49
41234;BME280;26968;42.686;23.352;2022-12-07T07:31:46;95116.56;;;6.07;76.57
41234;BME280;26968;42.686;23.352;2022-12-07T07:34:11;95093.97;;;5.89;76.40
41234;BME280;26968;42.686;23.352;2022-12-07T07:36:37;95091.38;;;5.72;77.24
41234;BME280;26968;42.686;23.352;2022-12-07T07:39:05;95093.78;;;5.96;76.71
41234;BME280;26968;42.686;23.352;2022-12-07T07:41:30;94995.34;;;5.26;76.51
41234;BME280;26968;42.686;23.352;2022-12-07T07:43:56;95034.53;;;5.50;76.26
41234;BME280;26968;42.686;23.352;2022-12-07T07:46:22;95041.56;;;5.66;75.98
41234;BME280;26968;42.686;23.352;2022-12-07T07:48:47;95160.25;;;6.30;76.01
41234;BME280;26968;42.686;23.352;2022-12-07T07:51:14;95168.91;;;6.25;76.63
41234;BME280;26968;42.686;23.352;2022-12-07T07:53:40;94520.19;;;2.20;76.30
41234;BME280;26968;42.686;23.352;2022-12-07T07:56:14;94902.66;;;4.71;76.22
41234;BME280;26968;42.686;23.352;2022-12-07T07:58:39;94827.31;;;4.33;75.67
41234;BME280;26968;42.686;23.352;2022-12-07T08:01:06;95157.13;;;6.54;75.99
41234;BME280;26968;42.686;23.352;2022-12-07T08:03:31;94800.78;;;4.12;75.20
41234;BME280;26968;42.686;23.352;2022-12-07T08:06:04;94815.84;;;4.39;75.09
41234;BME280;26968;42.686;23.352;2022-12-07T08:08:31;95134.00;;;6.62;75.24
41234;BME280;26968;42.686;23.352;2022-12-07T08:10:56;95030.44;;;6.02;74.78
41234;BME280;26968;42.686;23.352;2022-12-07T08:13:25;94973.97;;;5.66;74.57
41234;BME280;26968;42.686;23.352;2022-12-07T08:15:51;95111.28;;;6.55;74.25
41234;BME280;26968;42.686;23.352;2022-12-07T08:18:16;95066.81;;;6.32;74.48
41234;BME280;26968;42.686;23.352;2022-12-07T08:20:42;95157.41;;;6.85;74.42
41234;BME280;26968;42.686;23.352;2022-12-07T08:23:08;95036.53;;;6.08;74.36
41234;BME280;26968;42.686;23.352;2022-12-07T08:25:35;95106.19;;;6.49;74.25
41234;BME280;26968;42.686;23.352;2022-12-07T08:28:01;95069.81;;;6.19;74.50
41234;BME280;26968;42.686;23.352;2022-12-07T08:30:28;95147.31;;;6.77;74.37
41234;BME280;26968;42.686;23.352;2022-12-07T08:32:53;95066.84;;;6.37;73.83
41234;BME280;26968;42.686;23.352;2022-12-07T08:35:19;95113.53;;;6.74;73.88
41234;BME280;26968;42.686;23.352;2022-12-07T08:37:44;95062.66;;;6.41;73.88
41234;BME280;26968;42.686;23.352;2022-12-07T08:40:11;95154.44;;;7.08;73.85
41234;BME280;26968;42.686;23.352;2022-12-07T08:42:41;94772.53;;;4.63;73.50
41234;BME280;26968;42.686;23.352;2022-12-07T08:45:10;95147.56;;;7.07;73.36
41234;BME280;26968;42.686;23.352;2022-12-07T08:47:38;94991.38;;;6.21;73.34
41234;BME280;26968;42.686;23.352;2022-12-07T08:50:06;94892.31;;;5.56;73.16
41234;BME280;26968;42.686;23.352;2022-12-07T08:52:34;95076.16;;;6.77;73.00
41234;BME280;26968;42.686;23.352;2022-12-07T08:55:04;95034.78;;;6.45;73.06
41234;BME280;26968;42.686;23.352;2022-12-07T08:57:32;94983.72;;;6.19;73.10
41234;BME280;26968;42.686;23.352;2022-12-07T08:59:58;95075.38;;;6.81;73.33
41234;BME280;26968;42.686;23.352;2022-12-07T09:02:24;94993.09;;;6.10;72.89
41234;BME280;26968;42.686;23.352;2022-12-07T09:04:49;95133.44;;;7.23;73.02
41234;BME280;26968;42.686;23.352;2022-12-07T09:07:15;95068.81;;;6.84;73.01
41234;BME280;26968;42.686;23.352;2022-12-07T09:09:40;95028.88;;;6.65;72.75
41234;BME280;26968;42.686;23.352;2022-12-07T09:12:06;95125.06;;;7.31;72.60
41234;BME280;26968;42.686;23.352;2022-12-07T09:14:31;95074.47;;;7.03;72.70
41234;BME280;26968;42.686;23.352;2022-12-07T09:17:06;94993.00;;;6.64;72.25
41234;BME280;26968;42.686;23.352;2022-12-07T09:19:31;95061.91;;;7.15;72.20
41234;BME280;26968;42.686;23.352;2022-12-07T09:21:57;95028.84;;;7.02;72.14
41234;BME280;26968;42.686;23.352;2022-12-07T09:24:22;95031.25;;;7.04;72.19
41234;BME280;26968;42.686;23.352;2022-12-07T09:26:48;95028.09;;;7.07;72.32
41234;BME280;26968;42.686;23.352;2022-12-07T09:29:13;95028.94;;;7.12;72.65
41234;BME280;26968;42.686;23.352;2022-12-07T09:31:38;95073.66;;;7.39;71.74
41234;BME280;26968;42.686;23.352;2022-12-07T09:34:04;95056.69;;;7.25;72.02
41234;BME280;26968;42.686;23.352;2022-12-07T09:36:31;94933.69;;;6.56;72.26
41234;BME280;26968;42.686;23.352;2022-12-07T09:38:57;95085.44;;;7.79;72.03
41234;BME280;26968;42.686;23.352;2022-12-07T09:41:24;94975.94;;;7.19;71.71
41234;BME280;26968;42.686;23.352;2022-12-07T09:43:51;95002.44;;;7.44;71.86
41234;BME280;26968;42.686;23.352;2022-12-07T09:46:19;95029.16;;;7.58;71.33
41234;BME280;26968;42.686;23.352;2022-12-07T09:48:45;94985.28;;;7.36;71.56
41234;BME280;26968;42.686;23.352;2022-12-07T09:51:22;95058.56;;;7.87;70.84
41234;BME280;26968;42.686;23.352;2022-12-07T09:53:49;94893.03;;;6.94;70.90
41234;BME280;26968;42.686;23.352;2022-12-07T09:56:17;95077.63;;;7.99;70.81
41234;BME280;26968;42.686;23.352;2022-12-07T09:58:43;95075.25;;;8.02;70.66
41234;BME280;26968;42.686;23.352;2022-12-07T10:03:37;94973.22;;;7.61;70.53
41234;BME280;26968;42.686;23.352;2022-12-07T10:06:04;94875.66;;;6.98;70.36
41234;BME280;26968;42.686;23.352;2022-12-07T10:08:30;94962.63;;;7.51;70.59
41234;BME280;26968;42.686;23.352;2022-12-07T10:11:01;95064.81;;;8.43;70.16
41234;BME280;26968;42.686;23.352;2022-12-07T10:16:00;95059.00;;;8.46;69.36
41234;BME280;26968;42.686;23.352;2022-12-07T10:18:38;95007.41;;;8.18;69.46
41234;BME280;26968;42.686;23.352;2022-12-07T10:23:41;95045.81;;;8.61;69.00
41234;BME280;26968;42.686;23.352;2022-12-07T10:31:43;94967.00;;;8.83;68.41
41234;BME280;26968;42.686;23.352;2022-12-07T10:34:29;95018.94;;;9.49;67.83
41234;BME280;26968;42.686;23.352;2022-12-07T10:37:19;95019.44;;;9.66;67.17
41234;BME280;26968;42.686;23.352;2022-12-07T10:39:55;95014.59;;;9.83;66.18
41234;BME280;26968;42.686;23.352;2022-12-07T10:45:06;95007.41;;;9.89;64.85
41234;BME280;26968;42.686;23.352;2022-12-07T11:07:55;94786.00;;;8.50;65.57
41234;BME280;26968;42.686;23.352;2022-12-07T11:10:44;94880.66;;;9.18;65.35
41234;BME280;26968;42.686;23.352;2022-12-07T11:13:28;94888.84;;;9.21;65.18
41234;BME280;26968;42.686;23.352;2022-12-07T11:19:49;94976.75;;;9.73;65.69
41234;BME280;26968;42.686;23.352;2022-12-07T11:22:26;94972.22;;;9.83;65.02
41234;BME280;26968;42.686;23.352;2022-12-07T11:25:03;94960.94;;;9.57;65.53
41234;BME280;26968;42.686;23.352;2022-12-07T11:27:53;94967.50;;;9.70;66.50
41234;BME280;26968;42.686;23.352;2022-12-07T11:30:31;94928.91;;;9.59;65.73
41234;BME280;26968;42.686;23.352;2022-12-07T11:35:38;94945.44;;;9.85;65.72
41234;BME280;26968;42.686;23.352;2022-12-07T11:38:18;94938.84;;;9.82;65.75
41234;BME280;26968;42.686;23.352;2022-12-07T11:40:49;94944.78;;;10.03;65.33
41234;BME280;26968;42.686;23.352;2022-12-07T11:46:00;94890.59;;;9.85;65.86
41234;BME280;26968;42.686;23.352;2022-12-07T11:48:33;94945.53;;;10.08;64.84
41234;BME280;26968;42.686;23.352;2022-12-07T11:51:02;94931.28;;;9.99;64.63
41234;BME280;26968;42.686;23.352;2022-12-07T11:56:16;94863.03;;;9.91;63.97
41234;BME280;26968;42.686;23.352;2022-12-07T11:58:55;94926.53;;;10.40;64.33
41234;BME280;26968;42.686;23.352;2022-12-07T12:06:37;94914.44;;;10.87;62.77
41234;BME280;26968;42.686;23.352;2022-12-07T12:17:36;94869.41;;;10.82;60.78
41234;BME280;26968;42.686;23.352;2022-12-07T12:20:26;94897.16;;;10.61;61.61
41234;BME280;26968;42.686;23.352;2022-12-07T12:23:01;94762.94;;;9.54;62.16
41234;BME280;26968;42.686;23.352;2022-12-07T12:25:40;94758.94;;;9.57;62.05
41234;BME280;26968;42.686;23.352;2022-12-07T12:28:23;94857.94;;;10.34;61.66
41234;BME280;26968;42.686;23.352;2022-12-07T12:31:10;94886.88;;;10.59;62.35
41234;BME280;26968;42.686;23.352;2022-12-07T12:33:44;94882.63;;;10.58;62.02
41234;BME280;26968;42.686;23.352;2022-12-07T12:54:28;94788.41;;;10.42;63.06
41234;BME280;26968;42.686;23.352;2022-12-07T12:57:14;94837.13;;;10.75;62.83
41234;BME280;26968;42.686;23.352;2022-12-07T13:02:52;94756.94;;;10.59;61.17
41234;BME280;26968;42.686;23.352;2022-12-07T13:05:23;94842.38;;;10.99;61.75
41234;BME280;26968;42.686;23.352;2022-12-07T13:08:21;94584.13;;;9.67;61.30
41234;BME280;26968;42.686;23.352;2022-12-07T13:10:49;94796.03;;;11.34;60.65
41234;BME280;26968;42.686;23.352;2022-12-07T13:15:41;94871.78;;;11.87;59.52
41234;BME280;26968;42.686;23.352;2022-12-07T13:29:16;94796.53;;;11.73;58.48
41234;BME280;26968;42.686;23.352;2022-12-07T13:31:50;94797.81;;;11.76;58.54
41234;BME280;26968;42.686;23.352;2022-12-07T13:34:39;94867.72;;;12.27;58.33
41234;BME280;26968;42.686;23.352;2022-12-07T13:39:34;94862.84;;;12.16;58.88
41234;BME280;26968;42.686;23.352;2022-12-07T13:42:19;94782.44;;;11.73;58.68
41234;BME280;26968;42.686;23.352;2022-12-07T13:44:47;94854.47;;;12.22;58.93
41234;BME280;26968;42.686;23.352;2022-12-07T13:47:30;94854.41;;;12.27;58.45
41234;BME280;26968;42.686;23.352;2022-12-07T13:49:57;94856.28;;;12.27;58.40
41234;BME280;26968;42.686;23.352;2022-12-07T13:52:29;94602.22;;;10.50;58.78
41234;BME280;26968;42.686;23.352;2022-12-07T13:55:01;94613.16;;;10.43;58.67
41234;BME280;26968;42.686;23.352;2022-12-07T13:57:28;94845.53;;;11.99;58.63
41234;BME280;26968;42.686;23.352;2022-12-07T13:59:59;94792.22;;;11.58;58.88
41234;BME280;26968;42.686;23.352;2022-12-07T14:02:29;94796.31;;;11.51;59.09
41234;BME280;26968;42.686;23.352;2022-12-07T14:05:12;94671.00;;;10.60;59.67
41234;BME280;26968;42.686;23.352;2022-12-07T14:15:53;94804.63;;;11.26;59.76
41234;BME280;26968;42.686;23.352;2022-12-07T14:18:37;94857.59;;;11.54;59.95
41234;BME280;26968;42.686;23.352;2022-12-07T14:23:35;94861.78;;;11.42;60.24
41234;BME280;26968;42.686;23.352;2022-12-07T14:26:11;94859.16;;;11.18;60.91
41234;BME280;26968;42.686;23.352;2022-12-07T14:28:39;94670.31;;;9.78;61.21
41234;BME280;26968;42.686;23.352;2022-12-07T14:31:12;94769.06;;;10.41;60.98
41234;BME280;26968;42.686;23.352;2022-12-07T14:33:39;94869.06;;;10.89;61.84
41234;BME280;26968;42.686;23.352;2022-12-07T14:36:05;94842.53;;;10.65;61.93
41234;BME280;26968;42.686;23.352;2022-12-07T14:38:30;94774.63;;;10.11;62.23
41234;BME280;26968;42.686;23.352;2022-12-07T14:40:58;94775.97;;;10.08;62.44
41234;BME280;26968;42.686;23.352;2022-12-07T14:43:46;94558.44;;;8.52;62.72
41234;BME280;26968;42.686;23.352;2022-12-07T14:46:15;94578.84;;;8.46;64.10
41234;BME280;26968;42.686;23.352;2022-12-07T14:48:40;94692.59;;;9.14;63.75
41234;BME280;26968;42.686;23.352;2022-12-07T14:51:08;94641.88;;;8.68;64.24
41234;BME280;26968;42.686;23.352;2022-12-07T14:53:41;94731.69;;;9.22;64.63
41234;BME280;26968;42.686;23.352;2022-12-07T14:56:08;94864.00;;;10.00;64.73
41234;BME280;26968;42.686;23.352;2022-12-07T14:58:34;94863.25;;;9.95;65.04
41234;BME280;26968;42.686;23.352;2022-12-07T15:01:00;94804.69;;;9.28;66.36
41234;BME280;26968;42.686;23.352;2022-12-07T15:03:25;94811.56;;;9.24;66.42
41234;BME280;26968;42.686;23.352;2022-12-07T15:05:51;94833.22;;;9.32;66.81
41234;BME280;26968;42.686;23.352;2022-12-07T15:08:17;94810.44;;;8.92;67.90
41234;BME280;26968;42.686;23.352;2022-12-07T15:10:43;94610.84;;;7.65;67.66
41234;BME280;26968;42.686;23.352;2022-12-07T15:13:09;94884.81;;;9.34;68.11
41234;BME280;26968;42.686;23.352;2022-12-07T15:15:54;94841.53;;;9.10;67.83
41234;BME280;26968;42.686;23.352;2022-12-07T15:18:22;94870.88;;;9.18;67.76
41234;BME280;26968;42.686;23.352;2022-12-07T15:20:50;94819.44;;;8.80;67.80
41234;BME280;26968;42.686;23.352;2022-12-07T15:23:17;94891.06;;;8.99;69.26
41234;BME280;26968;42.686;23.352;2022-12-07T15:25:45;94888.97;;;8.86;69.30
41234;BME280;26968;42.686;23.352;2022-12-07T15:28:12;94722.72;;;7.80;69.48
41234;BME280;26968;42.686;23.352;2022-12-07T15:30:42;94845.19;;;8.60;69.58